Disclaimer

Please do not use the information listed here in-flight or in-navigation, as they are not provided to us by the airports but are provided by volunteers, so they might be outdated.

Search


Regions


Airport information page

No radio frequency information is available.

Airport informations:
Latitude: 54° 53' 24.18" N
Longitude: 020° 35' 33.48" E
Elevation: 42 feet - 13 meters
Operating hours: Remarks
Operating agency: Military-civil joint use airport
Timezone: UTC+2(+3DT) - Last Sunday in March to last Sunday in October
Fuel: N/A

Runway information:
06/24 - 8202 x 148 feet< - >2500 x 45 meters

Recent METARs:
UMKK 190300Z 08008MPS 9999 OVC019 04/01 Q1028 R06/19//60 NOSIG RMK QFE770/1027
UMKK 190330Z 07007MPS 9999 OVC015 04/01 Q1028 R06/19//60 NOSIG RMK QFE770/1027
UMKK 190400Z 08009MPS 9999 OVC015 04/01 Q1028 R06/19//60 NOSIG RMK QFE770/1027

Airport on the map: